Time;durP1;ratioP1;P1;durP2;ratioP2;P2;SDS_P1;SDS_P2;PMS_P1;PMS_P2;Temp;Humidity;BMP_temperature;BMP_pressure;BME280_temperature;BME280_humidity;BME280_pressure;Samples;Min_cycle;Max_cycle;Signal;HPM_P1;HPM_P2
2021/03/22 00:01:22;;;;;;;4.65;1.38;;;;;;;1.46;59.80;100954.59;5036130;28;20052;-80
2021/03/22 00:03:49;;;;;;;3.63;1.05;;;;;;;1.57;59.37;100964.81;5038577;28;20049;-80
2021/03/22 00:06:16;;;;;;;3.17;1.25;;;;;;;1.82;59.52;100957.47;5056683;28;20586;-80
2021/03/22 00:08:43;;;;;;;5.03;0.88;;;;;;;1.69;59.53;100959.41;5055913;28;20078;-80
2021/03/22 00:11:09;;;;;;;6.05;1.55;;;;;;;1.57;59.46;100959.63;5063542;28;20049;-81
2021/03/22 00:13:36;;;;;;;4.43;0.95;;;;;;;1.43;60.02;100965.03;5036571;28;20102;-80
2021/03/22 00:16:07;;;;;;;3.40;2.05;;;;;;;1.45;59.90;100951.16;5035367;28;20045;-81
2021/03/22 00:18:37;;;;;;;2.72;1.20;;;;;;;1.29;60.50;100954.03;5021147;28;20057;-80
2021/03/22 00:21:06;;;;;;;2.63;0.90;;;;;;;1.22;60.47;100958.47;5054364;28;20052;-79
2021/03/22 00:23:33;;;;;;;2.13;0.80;;;;;;;1.18;60.74;100951.59;5037303;28;20536;-80
2021/03/22 00:26:00;;;;;;;2.75;1.00;;;;;;;1.23;60.96;100958.41;5043031;28;20548;-80
2021/03/22 00:28:27;;;;;;;2.13;0.77;;;;;;;1.25;60.59;100953.19;5045540;28;20044;-80
2021/03/22 00:30:53;;;;;;;2.63;1.10;;;;;;;1.34;60.64;100949.63;5050958;28;20052;-80
2021/03/22 00:33:22;;;;;;;4.80;1.10;;;;;;;1.44;60.41;100946.88;5034805;28;20061;-80
2021/03/22 00:35:49;;;;;;;2.40;0.75;;;;;;;1.51;60.54;100953.66;5052607;28;20053;-80
2021/03/22 00:38:17;;;;;;;8.77;2.58;;;;;;;1.49;60.31;100951.97;5034453;28;20071;-80
2021/03/22 00:40:45;;;;;;;5.10;1.17;;;;;;;1.64;60.38;100945.66;5022923;28;20070;-80
2021/03/22 00:43:12;;;;;;;3.35;1.85;;;;;;;1.56;60.74;100950.13;5039505;28;20049;-80
2021/03/22 00:45:54;;;;;;;3.53;1.30;;;;;;;1.71;59.93;100948.13;5046671;28;20050;-80
2021/03/22 00:48:21;;;;;;;5.40;1.33;;;;;;;1.58;59.91;100951.81;5029445;28;20156;-79
2021/03/22 00:50:48;;;;;;;2.15;0.80;;;;;;;1.45;60.90;100945.97;5055461;28;20055;-80
2021/03/22 00:53:15;;;;;;;4.93;1.50;;;;;;;1.45;60.28;100948.56;5030203;28;20422;-80
2021/03/22 00:55:42;;;;;;;3.25;1.67;;;;;;;1.44;61.30;100949.47;5054221;28;20465;-80
2021/03/22 00:58:09;;;;;;;3.83;1.70;;;;;;;1.49;60.72;100944.19;5050202;28;20056;-80
2021/03/22 01:00:40;;;;;;;9.25;1.67;;;;;;;1.50;60.98;100940.72;5029018;28;20531;-81
2021/03/22 01:03:10;;;;;;;6.05;1.95;;;;;;;1.49;61.55;100945.03;5045985;28;20056;-80
2021/03/22 01:05:37;;;;;;;3.95;1.58;;;;;;;1.49;61.68;100945.03;5049829;23;20095;-78
2021/03/22 01:08:04;;;;;;;6.10;1.55;;;;;;;1.41;62.39;100946.91;5047663;28;20108;-74
2021/03/22 01:10:50;;;;;;;5.97;1.98;;;;;;;1.36;62.29;100943.53;5040892;28;20076;-73
2021/03/22 01:13:20;;;;;;;2.13;1.23;;;;;;;1.43;62.84;100939.94;5048527;28;20045;-75
2021/03/22 01:15:47;;;;;;;6.00;1.80;;;;;;;1.32;63.08;100943.59;5027756;28;20347;-75
2021/03/22 01:18:16;;;;;;;6.60;2.53;;;;;;;1.40;63.06;100940.00;5015005;28;20658;-73
2021/03/22 01:20:50;;;;;;;6.38;1.75;;;;;;;1.30;63.42;100935.81;5008671;28;20552;-74
2021/03/22 01:23:17;;;;;;;10.07;1.70;;;;;;;1.35;63.45;100936.63;4996971;28;20165;-74
2021/03/22 01:25:43;;;;;;;6.95;1.60;;;;;;;1.23;63.77;100937.69;5033857;28;20749;-75
2021/03/22 01:28:13;;;;;;;8.30;1.52;;;;;;;1.26;63.28;100940.22;4999056;28;20045;-75
2021/03/22 01:30:44;;;;;;;6.25;1.85;;;;;;;1.19;63.80;100932.56;5015942;28;20049;-75
2021/03/22 01:33:14;;;;;;;6.00;1.52;;;;;;;1.25;63.96;100927.28;4983050;28;20130;-75
2021/03/22 01:35:41;;;;;;;4.10;1.33;;;;;;;1.30;63.71;100930.63;5038618;28;20362;-75
2021/03/22 01:38:08;;;;;;;6.18;1.70;;;;;;;1.26;64.26;100926.38;5011671;28;20052;-75
2021/03/22 01:41:11;;;;;;;6.28;1.60;;;;;;;1.38;63.86;100928.78;5001685;28;20052;-75
2021/03/22 01:44:01;;;;;;;11.38;2.08;;;;;;;1.44;63.34;100926.13;4992151;28;20140;-76
2021/03/22 01:46:41;;;;;;;9.38;2.10;;;;;;;1.44;63.56;100925.22;5002228;28;20061;-74
2021/03/22 01:49:09;;;;;;;8.00;1.85;;;;;;;1.59;63.92;100929.31;5006423;28;20047;-75
2021/03/22 01:51:36;;;;;;;5.68;1.67;;;;;;;1.41;64.28;100920.09;5026566;28;20049;-75
2021/03/22 01:54:04;;;;;;;7.43;1.50;;;;;;;1.35;63.97;100915.00;4985512;28;20048;-75
2021/03/22 01:56:38;;;;;;;4.93;1.75;;;;;;;1.34;64.21;100918.47;5026076;28;20145;-76
2021/03/22 01:59:04;;;;;;;3.95;1.70;;;;;;;1.33;64.22;100909.84;5023727;28;20061;-76
2021/03/22 02:01:31;;;;;;;6.63;1.90;;;;;;;1.36;64.50;100908.97;5042513;28;20049;-75
2021/03/22 02:03:58;;;;;;;6.20;1.77;;;;;;;1.40;64.13;100900.25;5023314;28;20055;-75
2021/03/22 02:06:26;;;;;;;5.60;2.22;;;;;;;1.48;64.46;100913.91;5012784;28;20145;-75
2021/03/22 02:08:54;;;;;;;3.92;1.52;;;;;;;1.50;64.73;100912.16;5040233;28;20057;-73
2021/03/22 02:11:22;;;;;;;6.35;1.75;;;;;;;1.49;64.53;100911.31;5016263;28;20054;-74
2021/03/22 02:13:50;;;;;;;4.70;1.88;;;;;;;1.52;64.54;100913.84;5004475;28;20145;-73
2021/03/22 02:16:21;;;;;;;4.65;1.88;;;;;;;1.52;64.63;100921.63;5019342;28;20270;-76
2021/03/22 02:18:56;;;;;;;9.68;1.70;;;;;;;1.41;65.12;100914.91;5002616;28;20088;-74
2021/03/22 02:21:52;;;;;;;15.88;2.60;;;;;;;1.34;65.74;100915.88;5041965;28;20068;-75
2021/03/22 02:24:40;;;;;;;5.65;1.70;;;;;;;1.31;66.28;100921.16;5029663;28;20113;-73
2021/03/22 02:27:35;;;;;;;5.53;2.08;;;;;;;1.32;66.32;100917.66;4992766;28;20041;-74
2021/03/22 02:30:23;;;;;;;10.15;2.10;;;;;;;1.30;67.08;100922.00;5006711;28;20069;-73
2021/03/22 02:33:16;;;;;;;7.38;1.85;;;;;;;1.35;66.55;100913.28;5014197;28;20063;-76
2021/03/22 02:35:47;;;;;;;11.50;2.40;;;;;;;1.21;67.43;100921.25;5015501;28;20496;-74
2021/03/22 02:38:22;;;;;;;9.55;2.00;;;;;;;1.22;67.95;100930.78;4998215;28;20060;-72
2021/03/22 02:40:57;;;;;;;9.07;2.47;;;;;;;1.26;68.52;100924.66;5012512;28;20050;-73
2021/03/22 02:43:23;;;;;;;8.18;2.10;;;;;;;1.16;68.94;100923.06;4994387;28;20061;-73
2021/03/22 02:45:54;;;;;;;6.95;1.52;;;;;;;1.25;69.28;100935.03;5031730;28;20139;-75
2021/03/22 02:48:24;;;;;;;4.75;1.67;;;;;;;1.07;69.81;100935.34;4998275;28;20401;-76
2021/03/22 02:50:54;;;;;;;6.60;1.95;;;;;;;0.99;70.49;100943.22;5031610;28;20343;-74
2021/03/22 02:53:32;;;;;;;5.82;1.92;;;;;;;1.12;70.27;100936.97;5015035;28;20065;-74
2021/03/22 02:56:00;;;;;;;11.23;2.47;;;;;;;1.01;71.10;100937.13;5031069;28;20052;-75
2021/03/22 02:58:33;;;;;;;9.10;1.98;;;;;;;1.01;70.70;100942.31;5017341;28;20058;-74
2021/03/22 03:01:17;;;;;;;14.13;2.67;;;;;;;0.87;71.75;100949.44;5015740;28;20057;-75
2021/03/22 03:03:45;;;;;;;4.90;1.60;;;;;;;0.85;72.00;100942.56;5015037;28;20049;-75
2021/03/22 03:06:12;;;;;;;6.65;1.73;;;;;;;1.02;72.34;100950.94;5024052;28;20113;-75
2021/03/22 03:08:41;;;;;;;13.18;2.45;;;;;;;0.82;72.45;100948.66;5038160;28;20132;-75
2021/03/22 03:11:10;;;;;;;10.00;2.35;;;;;;;0.73;72.98;100948.78;4996542;28;20176;-76
2021/03/22 03:13:37;;;;;;;8.43;2.22;;;;;;;0.78;72.97;100951.31;5015450;28;20060;-74
2021/03/22 03:16:05;;;;;;;13.63;2.70;;;;;;;0.83;73.45;100949.50;5016511;28;20501;-74
2021/03/22 03:18:32;;;;;;;11.90;2.28;;;;;;;0.71;74.22;100961.72;5012498;28;20045;-75
2021/03/22 03:20:59;;;;;;;7.57;2.03;;;;;;;0.72;74.13;100958.28;5013496;28;20037;-75
2021/03/22 03:23:28;;;;;;;10.98;2.60;;;;;;;0.77;74.52;100960.81;5032271;28;20103;-74
2021/03/22 03:25:55;;;;;;;9.82;2.33;;;;;;;0.74;74.39;100958.25;5010022;28;20552;-77
2021/03/22 03:28:22;;;;;;;12.25;2.50;;;;;;;0.65;75.02;100964.41;5012131;28;20628;-79
2021/03/22 03:30:48;;;;;;;5.95;1.73;;;;;;;0.75;74.85;100967.75;5006568;28;20058;-74
2021/03/22 03:33:15;;;;;;;9.68;2.45;;;;;;;0.71;75.59;100966.06;5034191;28;20137;-75
2021/03/22 03:35:43;;;;;;;14.27;3.15;;;;;;;0.71;75.04;100964.31;5005602;28;20041;-74
2021/03/22 03:38:11;;;;;;;10.23;2.10;;;;;;;0.60;76.20;100963.63;5032063;28;20057;-75
2021/03/22 03:40:43;;;;;;;10.90;2.58;;;;;;;0.48;76.93;100969.78;5016496;28;20076;-76
2021/03/22 03:43:11;;;;;;;8.70;1.90;;;;;;;0.39;76.92;100975.09;4977024;28;20056;-75
2021/03/22 03:45:40;;;;;;;8.55;3.03;;;;;;;0.47;77.25;100973.28;5019266;28;20096;-74
2021/03/22 03:48:12;;;;;;;12.98;3.90;;;;;;;0.45;77.51;100979.34;4993088;28;20060;-74
2021/03/22 03:50:40;;;;;;;11.23;2.42;;;;;;;0.64;77.06;100977.41;5001198;28;20045;-76
2021/03/22 03:53:07;;;;;;;14.30;2.05;;;;;;;0.69;77.16;100975.59;5000046;28;20054;-73
2021/03/22 03:55:34;;;;;;;7.95;2.05;;;;;;;0.58;77.51;100983.50;4999952;28;20049;-73
2021/03/22 03:58:01;;;;;;;15.93;2.90;;;;;;;0.59;77.33;100985.22;4997013;28;20061;-73
2021/03/22 04:00:34;;;;;;;16.95;2.33;;;;;;;0.60;77.45;100984.34;5017227;28;20092;-72
2021/03/22 04:03:22;;;;;;;8.38;2.35;;;;;;;0.57;77.54;100986.97;4991417;28;20053;-73
2021/03/22 04:05:54;;;;;;;12.07;2.80;;;;;;;0.48;77.71;100990.53;5010348;28;20037;-73
2021/03/22 04:08:21;;;;;;;20.27;3.28;;;;;;;0.32;78.58;100982.97;5000225;28;20456;-73
2021/03/22 04:10:49;;;;;;;23.15;3.17;;;;;;;0.25;79.24;100997.69;5022356;28;20169;-73
2021/03/22 04:13:16;;;;;;;12.43;2.85;;;;;;;0.24;79.42;100999.44;5000730;28;20057;-72
2021/03/22 04:15:43;;;;;;;11.75;3.88;;;;;;;0.22;79.41;101000.31;4999227;28;20144;-73
2021/03/22 04:18:26;;;;;;;14.77;2.90;;;;;;;0.19;79.98;101002.94;4996012;28;20544;-73
2021/03/22 04:20:53;;;;;;;9.85;2.78;;;;;;;0.35;80.16;101009.66;5015484;28;20677;-72
2021/03/22 04:23:19;;;;;;;14.98;2.25;;;;;;;0.24;79.97;101003.75;5020484;28;20064;-71
2021/03/22 04:25:46;;;;;;;10.43;2.38;;;;;;;0.24;80.17;101008.94;5011373;28;20064;-72
2021/03/22 04:28:13;;;;;;;7.82;2.40;;;;;;;0.29;80.02;101012.34;5012585;28;20042;-71
2021/03/22 04:30:40;;;;;;;8.48;2.47;;;;;;;0.26;80.39;101009.75;5009082;28;20555;-73
2021/03/22 04:33:06;;;;;;;9.40;2.38;;;;;;;0.24;80.52;101014.97;5011225;28;20053;-74
2021/03/22 04:35:33;;;;;;;12.30;2.38;;;;;;;0.25;80.33;101016.69;4993192;28;20061;-75
2021/03/22 04:38:00;;;;;;;11.90;2.40;;;;;;;0.27;80.69;101021.84;4997551;28;20072;-72
2021/03/22 04:40:28;;;;;;;12.27;2.65;;;;;;;0.34;81.00;101020.03;5015069;28;20045;-73
2021/03/22 04:42:55;;;;;;;13.55;3.20;;;;;;;0.40;80.60;101020.81;5003830;28;20116;-72
2021/03/22 04:45:26;;;;;;;20.85;2.50;;;;;;;0.30;80.59;101026.97;4999170;28;20045;-71
2021/03/22 04:47:52;;;;;;;18.25;4.28;;;;;;;0.14;81.26;101028.88;5018363;28;20140;-73
2021/03/22 04:50:21;;;;;;;9.68;3.03;;;;;;;0.12;82.05;101028.03;4977892;28;20516;-73
2021/03/22 04:52:47;;;;;;;8.85;2.58;;;;;;;0.11;82.48;101023.72;4992950;28;20399;-74
2021/03/22 04:55:16;;;;;;;10.02;2.13;;;;;;;0.08;82.76;101022.91;4997490;28;20033;-72
2021/03/22 04:57:43;;;;;;;20.63;2.90;;;;;;;0.25;82.43;101028.75;4993467;28;20050;-72
2021/03/22 05:00:17;;;;;;;12.48;2.65;;;;;;;0.10;83.44;101023.75;5009536;28;20136;-74
2021/03/22 05:02:44;;;;;;;14.93;3.08;;;;;;;0.11;83.48;101033.22;5011095;28;20679;-72
2021/03/22 05:05:12;;;;;;;14.20;2.67;;;;;;;-0.06;84.23;101031.63;5031040;28;20096;-74
2021/03/22 05:07:39;;;;;;;8.90;2.10;;;;;;;0.02;84.37;101033.31;5010911;28;20551;-71
2021/03/22 05:10:07;;;;;;;15.27;3.15;;;;;;;-0.11;84.94;101036.00;5010205;28;20063;-72
2021/03/22 05:12:34;;;;;;;11.95;2.35;;;;;;;-0.17;85.36;101030.03;4989542;28;20080;-71
2021/03/22 05:15:01;;;;;;;15.68;2.60;;;;;;;-0.07;85.59;101031.66;5013248;28;20053;-72
2021/03/22 05:17:27;;;;;;;24.33;3.22;;;;;;;-0.16;86.41;101031.75;5004603;28;20135;-72
2021/03/22 05:19:54;;;;;;;17.73;2.25;;;;;;;-0.09;86.23;101031.69;5038749;28;20077;-72
2021/03/22 05:22:21;;;;;;;11.75;3.88;;;;;;;0.05;85.77;101030.72;4993324;28;20084;-72
2021/03/22 05:24:48;;;;;;;15.80;3.08;;;;;;;0.28;85.38;101036.50;5023217;28;20037;-73
2021/03/22 05:27:14;;;;;;;14.10;2.42;;;;;;;0.40;84.46;101043.28;5024028;28;20077;-73
2021/03/22 05:29:41;;;;;;;18.73;4.72;;;;;;;0.52;84.23;101040.56;4992674;28;20058;-73
2021/03/22 05:32:29;;;;;;;17.42;3.17;;;;;;;0.57;84.10;101048.28;5011506;28;20081;-72
2021/03/22 05:34:56;;;;;;;19.10;3.80;;;;;;;0.70;83.55;101052.47;5054181;28;20042;-71
2021/03/22 05:37:24;;;;;;;18.30;4.90;;;;;;;0.76;82.89;101052.38;4996800;28;20046;-75
2021/03/22 05:39:51;;;;;;;10.93;2.22;;;;;;;1.01;82.05;101055.53;4995418;28;20049;-73
2021/03/22 05:42:39;;;;;;;21.75;7.10;;;;;;;1.08;81.68;101059.78;5000587;28;20064;-76
2021/03/22 05:45:35;;;;;;;16.05;3.53;;;;;;;1.38;80.47;101058.50;4999911;28;20627;-74
2021/03/22 05:48:37;;;;;;;15.70;3.75;;;;;;;1.51;80.29;101060.03;4994848;28;20052;-73
2021/03/22 05:51:22;;;;;;;19.38;3.65;;;;;;;2.01;78.22;101068.75;5000886;28;20081;-72
2021/03/22 05:53:58;;;;;;;21.48;3.30;;;;;;;2.69;76.02;101064.94;5010226;28;20053;-75
2021/03/22 05:56:35;;;;;;;10.35;3.10;;;;;;;3.39;73.99;101067.84;4998444;28;20159;-73
2021/03/22 05:59:30;;;;;;;12.90;3.05;;;;;;;3.70;71.13;101073.22;4994293;28;20044;-73
2021/03/22 06:02:08;;;;;;;20.08;3.35;;;;;;;3.93;69.97;101067.44;5019154;28;20124;-73
2021/03/22 06:04:43;;;;;;;14.23;2.97;;;;;;;4.40;68.50;101070.59;4992352;28;20144;-74
2021/03/22 06:07:15;;;;;;;15.20;3.83;;;;;;;4.85;66.41;101073.69;5026824;28;20156;-73
2021/03/22 06:09:52;;;;;;;11.85;3.00;;;;;;;6.10;63.95;101076.88;4983219;28;20413;-74
2021/03/22 06:12:28;;;;;;;14.10;3.20;;;;;;;6.30;60.00;101076.19;5004384;28;20053;-74
2021/03/22 06:14:58;;;;;;;10.43;2.90;;;;;;;6.39;60.91;101080.25;5011365;28;20531;-73
2021/03/22 06:17:33;;;;;;;12.98;3.33;;;;;;;6.01;61.18;101087.63;4988561;28;20038;-74
2021/03/22 06:20:36;;;;;;;22.48;3.03;;;;;;;5.40;62.92;101092.97;4997510;28;20132;-73
2021/03/22 06:23:26;;;;;;;10.52;3.45;;;;;;;6.48;60.96;101096.47;4990260;28;20079;-73
2021/03/22 06:25:53;;;;;;;12.60;4.50;;;;;;;6.70;59.50;101104.44;5013543;28;20054;-73
2021/03/22 06:28:23;;;;;;;15.27;3.92;;;;;;;6.93;57.91;101114.09;5020196;28;20072;-73
2021/03/22 06:31:08;;;;;;;19.40;4.32;;;;;;;6.88;57.93;101116.00;5017862;28;20051;-73
2021/03/22 06:33:40;;;;;;;14.02;4.65;;;;;;;7.19;57.44;101114.91;5016736;28;20157;-74
2021/03/22 06:36:09;;;;;;;15.82;4.13;;;;;;;8.33;53.77;101117.38;5017117;28;20136;-75
2021/03/22 06:38:36;;;;;;;16.35;4.03;;;;;;;8.47;53.72;101119.50;5009545;28;20038;-73
2021/03/22 06:41:41;;;;;;;15.40;3.67;;;;;;;9.17;51.42;101121.66;5017341;28;20047;-73
2021/03/22 06:44:16;;;;;;;14.23;3.72;;;;;;;11.06;46.51;101115.91;5019735;28;20057;-74
2021/03/22 06:47:01;;;;;;;15.18;3.75;;;;;;;12.06;43.68;101114.78;5029538;28;20474;-73
2021/03/22 06:49:33;;;;;;;12.33;3.93;;;;;;;13.79;39.08;101114.84;5017356;28;20117;-73
2021/03/22 06:52:10;;;;;;;11.55;3.15;;;;;;;13.18;40.68;101118.69;5003334;28;20482;-72
2021/03/22 06:54:41;;;;;;;17.02;3.92;;;;;;;13.04;40.58;101124.81;5031939;28;20061;-75
2021/03/22 06:57:10;;;;;;;12.07;3.92;;;;;;;11.30;42.86;101125.16;5015757;28;20064;-73
2021/03/22 06:59:39;;;;;;;21.27;4.28;;;;;;;10.14;45.39;101125.84;5017306;28;20696;-74
2021/03/22 07:02:21;;;;;;;20.20;4.43;;;;;;;9.76;46.76;101131.16;5041257;28;20079;-74
2021/03/22 07:04:48;;;;;;;17.10;3.72;;;;;;;9.58;47.33;101137.28;5017385;28;20073;-73
2021/03/22 07:07:25;;;;;;;18.20;3.55;;;;;;;9.27;48.10;101148.34;4997314;28;20049;-75
2021/03/22 07:09:57;;;;;;;11.32;3.90;;;;;;;8.97;48.25;101151.44;5025522;28;20066;-72
2021/03/22 07:12:31;;;;;;;13.25;3.95;;;;;;;8.70;49.28;101152.63;5021303;28;20563;-75
2021/03/22 07:15:16;;;;;;;16.13;3.72;;;;;;;8.93;48.59;101143.75;5020743;28;20095;-75
2021/03/22 07:17:42;;;;;;;14.23;3.92;;;;;;;9.41;48.64;101143.34;5029717;28;20037;-75
2021/03/22 07:20:16;;;;;;;13.00;3.78;;;;;;;10.39;45.05;101141.28;5021808;28;20038;-74
2021/03/22 07:22:43;;;;;;;15.43;3.25;;;;;;;9.74;45.80;101140.06;4984548;28;20041;-75
2021/03/22 07:25:34;;;;;;;11.68;3.63;;;;;;;9.58;45.59;101143.38;5005138;28;20061;-75
2021/03/22 07:28:11;;;;;;;12.13;3.47;;;;;;;9.49;46.93;101142.97;5019461;28;20048;-75
2021/03/22 07:30:46;;;;;;;13.27;3.42;;;;;;;9.52;46.58;101143.69;5017013;28;20033;-73
2021/03/22 07:33:39;;;;;;;17.03;3.90;;;;;;;9.76;45.65;101140.84;5017990;28;20052;-75
2021/03/22 07:36:15;;;;;;;15.40;4.20;;;;;;;10.46;44.64;101144.50;5006911;28;20489;-75
2021/03/22 07:39:09;;;;;;;13.00;4.53;;;;;;;10.50;44.34;101149.53;5018975;28;20059;-74
2021/03/22 07:41:41;;;;;;;14.50;3.83;;;;;;;10.16;44.58;101152.91;5019214;28;20116;-74
2021/03/22 07:44:21;;;;;;;12.77;3.55;;;;;;;10.70;42.95;101155.56;5014349;28;20042;-76
2021/03/22 07:47:39;;;;;;;16.13;4.20;;;;;;;12.60;38.37;101144.19;5021989;23;20053;-75
2021/03/22 07:50:40;;;;;;;9.30;3.10;;;;;;;11.82;38.94;101153.06;5017752;28;20052;-75
2021/03/22 07:53:18;;;;;;;12.35;3.08;;;;;;;11.90;38.94;101146.47;5028971;28;20049;-74
2021/03/22 07:55:51;;;;;;;12.85;3.95;;;;;;;10.84;40.13;101159.16;5028246;28;20050;-75
2021/03/22 07:58:41;;;;;;;15.18;3.38;;;;;;;11.29;39.67;101165.59;5030231;28;20049;-75
2021/03/22 08:01:26;;;;;;;8.77;4.00;;;;;;;11.54;38.89;101161.66;4996776;28;20041;-75
2021/03/22 08:04:21;;;;;;;11.63;3.45;;;;;;;12.01;39.63;101156.41;5006658;28;20094;-75
2021/03/22 08:06:59;;;;;;;8.25;2.58;;;;;;;11.99;37.10;101160.94;5021010;28;20097;-76
2021/03/22 08:09:34;;;;;;;8.60;2.40;;;;;;;10.49;39.30;101160.09;5011123;28;20141;-75
2021/03/22 08:12:19;;;;;;;11.50;3.13;;;;;;;11.02;38.81;101156.53;4996248;28;20041;-77
2021/03/22 08:14:46;;;;;;;12.63;3.08;;;;;;;11.96;37.63;101165.53;5011877;28;20042;-78
2021/03/22 08:17:29;;;;;;;11.82;2.88;;;;;;;13.56;34.18;101163.94;5007326;28;20045;-76
2021/03/22 08:20:00;;;;;;;13.43;3.05;;;;;;;13.05;35.44;101170.59;5009416;28;20155;-74
2021/03/22 08:22:32;;;;;;;11.65;2.05;;;;;;;12.58;34.07;101169.00;5011329;28;20061;-75
2021/03/22 08:25:21;;;;;;;10.70;2.22;;;;;;;14.50;32.05;101172.00;4997557;28;20067;-76
2021/03/22 08:28:03;;;;;;;8.77;2.03;;;;;;;13.00;34.32;101185.88;5016677;28;20429;-76
2021/03/22 08:30:44;;;;;;;6.80;1.83;;;;;;;12.43;34.59;101183.97;4989488;28;20132;-75
2021/03/22 08:33:39;;;;;;;8.95;2.25;;;;;;;13.24;34.16;101188.84;5032781;28;20438;-75
2021/03/22 08:36:29;;;;;;;7.82;2.45;;;;;;;12.00;35.90;101196.94;5005712;28;20058;-76
2021/03/22 08:39:02;;;;;;;7.45;2.30;;;;;;;12.24;35.30;101199.13;5014332;28;20059;-75
2021/03/22 08:41:34;;;;;;;7.72;3.00;;;;;;;14.29;32.46;101200.72;5003319;28;20317;-75
2021/03/22 08:44:09;;;;;;;8.20;2.05;;;;;;;13.31;32.31;101203.41;5016076;28;20060;-77
2021/03/22 08:46:56;;;;;;;;;;;;;;;12.92;33.32;101210.13;4997994;28;20053;-75
2021/03/22 08:49:42;;;;;;;;;;;;;;;13.03;32.96;101202.41;4998353;28;19957;-75
2021/03/22 08:52:19;;;;;;;6.35;2.38;;;;;;;10.18;37.88;101210.72;5013149;28;20039;-74
2021/03/22 08:54:45;;;;;;;8.43;2.80;;;;;;;9.95;39.78;101210.06;4990499;28;20049;-74
2021/03/22 08:57:22;;;;;;;7.65;2.13;;;;;;;10.52;38.48;101205.56;4995423;28;20058;-75
2021/03/22 08:59:50;;;;;;;8.82;2.28;;;;;;;11.15;37.59;101200.59;5010996;28;20534;-75
2021/03/22 09:02:24;;;;;;;8.68;2.25;;;;;;;10.19;37.91;101209.81;5009580;28;20049;-76
2021/03/22 09:04:53;;;;;;;6.50;1.73;;;;;;;10.25;38.07;101199.88;5006083;28;20048;-76
2021/03/22 09:07:22;;;;;;;6.45;1.77;;;;;;;10.46;38.17;101207.66;5027108;28;20057;-74
2021/03/22 09:09:49;;;;;;;8.48;1.50;;;;;;;10.37;38.31;101212.44;4988464;28;20048;-77
2021/03/22 09:12:30;;;;;;;5.75;2.38;;;;;;;10.72;37.14;101207.22;5023590;28;20061;-75
2021/03/22 09:14:58;;;;;;;6.80;2.28;;;;;;;9.97;38.66;101223.97;5029633;28;20148;-76
2021/03/22 09:17:32;;;;;;;11.75;2.90;;;;;;;10.31;38.20;101217.13;4979334;28;20060;-74
2021/03/22 09:20:37;;;;;;;5.30;1.65;;;;;;;10.01;38.07;101222.91;5032686;28;20041;-75
2021/03/22 09:23:10;;;;;;;10.07;1.90;;;;;;;10.33;36.85;101217.94;5013647;28;20047;-75
2021/03/22 09:25:46;;;;;;;4.68;1.42;;;;;;;9.79;37.49;101224.84;5006221;28;20072;-74
2021/03/22 09:28:25;;;;;;;;;;;;;;;9.24;39.11;101220.28;5019956;28;20132;-75
2021/03/22 09:30:56;;;;;;;7.50;2.25;;;;;;;10.08;38.13;101224.31;5023397;28;19924;-75
2021/03/22 09:33:49;;;;;;;6.75;2.42;;;;;;;10.22;37.16;101221.06;5020456;28;21081;-75
2021/03/22 09:36:37;;;;;;;4.72;1.45;;;;;;;10.85;35.95;101217.97;5019135;28;20136;-76
2021/03/22 09:39:17;;;;;;;6.55;1.45;;;;;;;9.98;36.45;101227.47;4997109;28;20053;-77
2021/03/22 09:42:11;;;;;;;11.32;2.97;;;;;;;8.94;37.71;101222.47;5000810;28;20125;-75
2021/03/22 09:44:58;;;;;;;7.82;1.88;;;;;;;9.66;38.16;101224.53;5005100;28;20362;-75
2021/03/22 09:47:31;;;;;;;8.95;3.10;;;;;;;9.90;36.60;101225.19;4984505;28;20137;-75
2021/03/22 09:50:02;;;;;;;5.45;1.45;;;;;;;9.39;36.88;101218.75;4998160;28;20041;-75
2021/03/22 09:52:51;;;;;;;10.32;2.00;;;;;;;9.50;36.50;101218.25;5021198;28;20091;-74
2021/03/22 09:55:26;;;;;;;;;;;;;;;7.72;38.94;101227.34;5021346;28;20077;-75
2021/03/22 09:57:54;;;;;;;5.93;1.83;;;;;;;8.54;38.54;101225.88;5004075;28;19935;-75
2021/03/22 10:00:28;;;;;;;5.28;1.60;;;;;;;8.39;38.92;101231.75;4988304;28;20057;-76
2021/03/22 10:03:00;;;;;;;6.03;1.67;;;;;;;8.29;37.26;101229.47;4986659;28;20455;-74
2021/03/22 10:05:50;;;;;;;12.15;1.98;;;;;;;8.08;38.93;101225.91;5009936;28;20056;-76
2021/03/22 10:08:24;;;;;;;17.05;1.85;;;;;;;8.61;37.74;101211.59;4988922;28;20046;-76
2021/03/22 10:10:52;;;;;;;4.20;1.55;;;;;;;8.84;36.94;101219.38;5006705;28;20042;-73
2021/03/22 10:13:31;;;;;;;3.20;1.00;;;;;;;8.45;37.53;101214.00;5016657;28;20050;-75
2021/03/22 10:16:18;;;;;;;4.10;1.63;;;;;;;8.50;37.40;101208.56;5016490;28;20049;-75
2021/03/22 10:19:00;;;;;;;8.68;1.63;;;;;;;8.59;37.60;101216.06;5020724;28;20087;-75
2021/03/22 10:21:37;;;;;;;5.07;1.30;;;;;;;8.53;36.90;101217.16;5001127;28;20046;-74
2021/03/22 10:24:29;;;;;;;6.55;2.00;;;;;;;8.31;37.98;101214.53;5016206;28;20056;-75
2021/03/22 10:26:57;;;;;;;5.80;1.40;;;;;;;7.98;38.43;101215.88;5011405;28;20572;-76
2021/03/22 10:29:28;;;;;;;4.40;1.23;;;;;;;8.34;38.69;101210.94;5010403;28;20039;-76
2021/03/22 10:32:03;;;;;;;3.58;1.25;;;;;;;8.61;37.32;101207.22;5007801;28;20111;-75
2021/03/22 10:34:40;;;;;;;4.85;1.27;;;;;;;8.48;37.42;101216.50;5014648;28;20080;-76
2021/03/22 10:37:15;;;;;;;5.47;1.05;;;;;;;8.18;37.62;101218.53;5012565;28;20045;-75
2021/03/22 10:39:47;;;;;;;3.85;1.15;;;;;;;8.55;36.69;101212.69;4984924;28;20053;-75
2021/03/22 10:42:22;;;;;;;6.43;1.20;;;;;;;8.86;36.59;101225.41;5006722;28;20053;-75
2021/03/22 10:44:49;;;;;;;3.17;0.98;;;;;;;8.88;35.48;101220.09;4987581;28;20079;-75
2021/03/22 10:47:18;;;;;;;3.33;0.90;;;;;;;8.81;34.89;101219.50;4974821;28;20062;-75
2021/03/22 10:49:47;;;;;;;5.30;1.30;;;;;;;8.65;36.28;101218.44;5009777;28;20033;-74
2021/03/22 10:52:28;;;;;;;9.20;1.40;;;;;;;8.60;35.77;101213.38;5011034;28;20043;-76
2021/03/22 10:54:56;;;;;;;6.30;1.38;;;;;;;8.53;36.04;101216.31;5015332;28;20059;-76
2021/03/22 10:57:24;;;;;;;3.03;1.10;;;;;;;8.82;34.95;101220.34;5008613;28;20529;-74
2021/03/22 10:59:54;;;;;;;2.58;0.82;;;;;;;8.75;35.06;101222.38;5017140;28;20421;-75
2021/03/22 11:02:37;;;;;;;6.18;1.30;;;;;;;8.81;35.09;101221.25;4984788;28;20121;-75
2021/03/22 11:05:11;;;;;;;2.72;0.80;;;;;;;8.35;34.28;101223.13;4994825;28;20499;-76
2021/03/22 11:07:38;;;;;;;2.90;0.90;;;;;;;8.26;33.92;101226.13;4975641;28;20045;-74
2021/03/22 11:10:14;;;;;;;3.65;0.90;;;;;;;8.42;34.82;101222.00;4985881;28;20077;-75
2021/03/22 11:16:31;;;;;;;4.03;1.27;;;;;;;7.84;34.75;101232.13;5000012;28;20044;-75
2021/03/22 11:19:09;;;;;;;3.80;1.75;;;;;;;8.34;35.74;101224.06;4998490;28;20477;-76
2021/03/22 11:21:36;;;;;;;3.05;1.23;;;;;;;8.09;35.19;101230.25;5010784;28;20060;-76
2021/03/22 11:24:02;;;;;;;4.20;0.82;;;;;;;8.27;35.03;101226.03;5000473;28;20072;-75
2021/03/22 11:26:30;;;;;;;2.88;0.70;;;;;;;8.30;35.36;101223.31;5006894;28;20072;-76
2021/03/22 11:29:16;;;;;;;4.57;1.20;;;;;;;8.22;36.43;101230.63;5008322;28;20048;-75
2021/03/22 11:31:45;;;;;;;6.70;1.15;;;;;;;8.20;36.58;101219.34;5021907;28;20046;-76
2021/03/22 11:34:23;;;;;;;5.15;1.63;;;;;;;8.37;36.93;101229.19;5007855;28;20050;-75
2021/03/22 11:37:04;;;;;;;2.75;1.10;;;;;;;8.93;36.35;101225.16;5023712;28;20060;-77
2021/03/22 11:39:34;;;;;;;7.15;1.60;;;;;;;9.17;34.95;101217.97;5009907;28;20525;-75
2021/03/22 11:42:22;;;;;;;4.28;1.00;;;;;;;8.96;35.38;101227.63;5026355;28;20525;-75
2021/03/22 11:44:48;;;;;;;4.53;1.15;;;;;;;8.97;34.41;101219.72;5026098;28;20049;-75
2021/03/22 11:47:29;;;;;;;3.50;1.15;;;;;;;8.96;35.19;101211.88;5026410;28;20060;-76
2021/03/22 11:49:56;;;;;;;5.43;1.20;;;;;;;8.82;35.71;101202.81;4996448;28;20056;-75
2021/03/22 11:52:31;;;;;;;4.30;1.20;;;;;;;8.65;36.35;101207.09;5009889;28;20061;-76
2021/03/22 11:55:07;;;;;;;2.13;1.08;;;;;;;8.68;36.82;101199.06;5013498;28;20103;-73
2021/03/22 11:57:36;;;;;;;5.18;1.23;;;;;;;8.88;35.75;101199.94;5006785;28;20050;-74
2021/03/22 12:00:20;;;;;;;4.78;0.73;;;;;;;9.02;36.02;101198.50;5009811;28;20131;-77
2021/03/22 12:02:52;;;;;;;6.55;1.30;;;;;;;9.17;33.64;101208.34;4998283;28;20252;-75
2021/03/22 12:13:36;;;;;;;1.80;0.70;;;;;;;8.59;34.35;101200.31;5018360;28;20126;-74